Aldeburgh, United Kingdom
Current Conditions -  °F | °C
As of 4:50 PM on Thursday 30 Oct 2014 (Local Time) from EGUW Reporting Station
Haze Haze  
Wind Chill: 61°   Ceiling: 1800
Heat Index: 61°   Visibility: 4mi
Dew Point: 59°   Wind: 5mph
Humidity: 94%   Direction: 140°SE
Pressure: 30.06"   Gusts: NA
Location:  52.15°N, 1.6°E
Report Text: EGUW 301650Z 14004KT 7000 BR BKN018 16/15 Q1018 WHT NOSIG
Loading
Personal Weather Stations






























Interactive Weather Map
Tropical Storm Tracking
New forecast layout! Learn more

10-Day Weather Forecast

Advertisements
Track Severe Weather on mobile